Afon Alaw — 2FCZ7 — position and weather

sailwx.info

Track history (hours):
 
Tides and Currents Weather Stations Pressure Air Temp Water Temp Dewpoint Dewpoint Depression Visibility Wind Speed Wind Dir Waves Ship Positions

Afon Alaw

Last reported at 2017-Apr-27 15:09 UTC. Time now 2017-May-25 05:05 UTC.
Position N 53°52' W 003°16'.
Warning: this ship's position is 27 days out of date.

Length 25 m; draft 2.6 m.

Type: Tug. MMSI: 235090202.

Date/timePositionNaut miles runAvg speedWind from/ knotsBaromVisibWave heightAir tempDewpointWater temp
2017-Apr-27 15:09N 53°52' W 003°16'0 0.0
2017-Apr-27 14:47N 53°52' W 003°16'0 0.4
2017-Apr-27 14:17N 53°52' W 003°16'1 0.0
2017-Apr-26 06:35N 53°53' W 003°16'1 0.1
2017-Apr-25 22:45N 53°52' W 003°15'  
2017-Apr-21 18:10N 49°59' W 003°27'2 9.4
2017-Apr-21 18:00N 49°59' W 003°25'130 9.5
2017-Apr-21 04:19N 50°31' W 000°09'3 8.4
2017-Apr-21 03:59N 50°32' W 000°04'4 8.4
2017-Apr-21 03:30N 50°33' E 000°02'4 8.3
2017-Apr-21 03:00N 50°34' E 000°08'15 8.8
2017-Apr-21 01:19N 50°38' E 000°31'5 9.4
2017-Apr-21 00:48N 50°40' E 000°37'37 9.7
2017-Apr-20 21:02N 51°03' E 001°23'3 7.5
2017-Apr-20 20:40N 51°05' E 001°26'1 8.2
2017-Apr-20 20:30N 51°06' E 001°27'4 7.8
2017-Apr-20 20:00N 51°08' E 001°33'4 8.2
2017-Apr-20 19:30N 51°11' E 001°37'4 8.1
2017-Apr-20 19:00N 51°14' E 001°41'4 8.4
2017-Apr-20 18:30N 51°18' E 001°42'4 8.6
2017-Apr-20 18:00N 51°22' E 001°44'4 8.9
2017-Apr-20 17:30N 51°27' E 001°46'5 9.3
2017-Apr-20 17:00N 51°31' E 001°46'5 9.9
2017-Apr-20 16:30N 51°36' E 001°46'610.3
2017-Apr-20 15:58N 51°42' E 001°44'510.5
2017-Apr-20 15:29N 51°47' E 001°43'510.7
2017-Apr-20 15:00N 51°52' E 001°44'510.9
2017-Apr-20 14:30N 51°57' E 001°45'1110.7
2017-Apr-20 13:30N 52°08' E 001°48'510.2
2017-Apr-20 13:00N 52°13' E 001°49'35 8.2
2017-Apr-20 08:43N 52°48' E 001°47'2 7.9
2017-Apr-20 08:29N 52°49' E 001°44'4 7.8
2017-Apr-20 08:00N 52°51' E 001°39'4 7.6
2017-Apr-20 07:30N 52°53' E 001°33'4 7.6
2017-Apr-20 07:00N 52°55' E 001°28'4 7.6
2017-Apr-20 06:30N 52°57' E 001°22'4 7.7
2017-Apr-20 06:00N 52°59' E 001°17'  
Track history (hours):
 
Tides and Currents Weather Stations Pressure Air Temp Water Temp Dewpoint Dewpoint Depression Visibility Wind Speed Wind Dir Waves Ship Positions

Afon Alaw

Last reported at 2017-Apr-27 15:09 UTC. Time now 2017-May-25 05:05 UTC.
Position N 53°52' W 003°16'.
Warning: this ship's position is 27 days out of date.

Length 25 m; draft 2.6 m.

Type: Tug. MMSI: 235090202.

Date/timePositionNaut miles runAvg speedWind from/ knotsBaromVisibWave heightAir tempDewpointWater temp
2017-Apr-27 15:09N 53°52' W 003°16'0 0.0
2017-Apr-27 14:47N 53°52' W 003°16'0 0.4
2017-Apr-27 14:17N 53°52' W 003°16'1 0.0
2017-Apr-26 06:35N 53°53' W 003°16'1 0.1
2017-Apr-25 22:45N 53°52' W 003°15'  
2017-Apr-21 18:10N 49°59' W 003°27'2 9.4
2017-Apr-21 18:00N 49°59' W 003°25'130 9.5
2017-Apr-21 04:19N 50°31' W 000°09'3 8.4
2017-Apr-21 03:59N 50°32' W 000°04'4 8.4
2017-Apr-21 03:30N 50°33' E 000°02'4 8.3
2017-Apr-21 03:00N 50°34' E 000°08'15 8.8
2017-Apr-21 01:19N 50°38' E 000°31'5 9.4
2017-Apr-21 00:48N 50°40' E 000°37'37 9.7
2017-Apr-20 21:02N 51°03' E 001°23'3 7.5
2017-Apr-20 20:40N 51°05' E 001°26'1 8.2
2017-Apr-20 20:30N 51°06' E 001°27'4 7.8
2017-Apr-20 20:00N 51°08' E 001°33'4 8.2
2017-Apr-20 19:30N 51°11' E 001°37'4 8.1
2017-Apr-20 19:00N 51°14' E 001°41'4 8.4
2017-Apr-20 18:30N 51°18' E 001°42'4 8.6
2017-Apr-20 18:00N 51°22' E 001°44'4 8.9
2017-Apr-20 17:30N 51°27' E 001°46'5 9.3
2017-Apr-20 17:00N 51°31' E 001°46'5 9.9
2017-Apr-20 16:30N 51°36' E 001°46'610.3
2017-Apr-20 15:58N 51°42' E 001°44'510.5
2017-Apr-20 15:29N 51°47' E 001°43'510.7
2017-Apr-20 15:00N 51°52' E 001°44'510.9
2017-Apr-20 14:30N 51°57' E 001°45'1110.7
2017-Apr-20 13:30N 52°08' E 001°48'510.2
2017-Apr-20 13:00N 52°13' E 001°49'35 8.2
2017-Apr-20 08:43N 52°48' E 001°47'2 7.9
2017-Apr-20 08:29N 52°49' E 001°44'4 7.8
2017-Apr-20 08:00N 52°51' E 001°39'4 7.6
2017-Apr-20 07:30N 52°53' E 001°33'4 7.6
2017-Apr-20 07:00N 52°55' E 001°28'4 7.6
2017-Apr-20 06:30N 52°57' E 001°22'4 7.7
2017-Apr-20 06:00N 52°59' E 001°17'  

Dump ship's entire track history